Terminal Aerodrome Forecast
Issued by NWS New Orleans/Baton Rouge, LA

Home | Current Version | Previous Version | Text Only | Print | Product List | Glossary On
Versions: 1 2 3 4 5 6 7 8 9 10 11 12 13 14 15 16
000
FTUS44 KLIX 181100
TAFBTR
TAF
KBTR 181129Z 1812/1912 06003KT P6SM BKN030
     FM181300 VRB03KT P6SM BKN040
     FM190000 08005KT P6SM OVC025 PROB30 1900/1904 -SHRA=

USA.gov is the U.S. government's official web portal to all federal, state and local government web resources and services.